Time,TemperatureF,DewpointF,PressureIn,WindDirection,WindDirectionDegrees,WindSpeedMPH,WindSpeedGustMPH,Humidity,HourlyPrecipIn,Conditions,Clouds,dailyrainin,SoftwareType,DateUTC
2013-03-12 00:00:00,50.8,50.0,29.94,SW,222,3.5,3.5,97,0.01,CLR,,1.45,WeatherDisplay:10.37,2013-03-12 04:00:00,
2013-03-12 00:05:00,50.7,49.9,29.94,SSW,213,1.1,0.0,97,0.00,RA,,0.00,WeatherDisplay:10.37,2013-03-12 04:05:00,
2013-03-12 00:10:00,50.6,49.8,29.94,SSW,213,1.0,0.0,97,0.00,RA,,0.00,WeatherDisplay:10.37,2013-03-12 04:10:00,
2013-03-12 00:16:00,50.4,49.6,29.94,WSW,238,2.3,2.3,97,0.00,CLR,,0.00,WeatherDisplay:10.37,2013-03-12 04:16:00,
2013-03-12 00:21:00,50.2,49.4,29.94,WSW,238,0.0,0.0,97,0.00,CLR,,0.00,WeatherDisplay:10.37,2013-03-12 04:21:00,
2013-03-12 00:26:00,50.0,49.2,29.94,SSE,160,1.1,1.1,97,0.00,CLR,,0.00,WeatherDisplay:10.37,2013-03-12 04:26:00,
2013-03-12 00:31:00,49.9,49.1,29.94,SSE,163,1.1,1.1,97,0.00,CLR,,0.00,WeatherDisplay:10.37,2013-03-12 04:31:00,
2013-03-12 00:36:00,49.9,49.1,29.94,SW,218,2.3,2.3,97,0.00,CLR,,0.00,WeatherDisplay:10.37,2013-03-12 04:36:00,
2013-03-12 00:41:00,49.7,48.9,29.94,SW,218,0.0,0.0,97,0.00,CLR,,0.00,WeatherDisplay:10.37,2013-03-12 04:41:00,
2013-03-12 00:46:00,49.7,48.9,29.94,SW,218,1.1,0.0,97,0.00,CLR,,0.00,WeatherDisplay:10.37,2013-03-12 04:46:00,
2013-03-12 00:51:00,49.6,48.8,29.94,SSW,192,2.3,0.0,97,0.00,CLR,,0.00,WeatherDisplay:10.37,2013-03-12 04:51:00,
2013-03-12 00:56:00,49.5,48.7,29.94,WSW,244,3.5,3.5,97,0.00,CLR,,0.00,WeatherDisplay:10.37,2013-03-12 04:56:00,
2013-03-12 01:01:00,49.3,48.5,29.93,SSW,209,2.3,2.3,97,0.00,CLR,,0.00,WeatherDisplay:10.37,2013-03-12 05:01:00,
2013-03-12 01:06:00,49.2,48.4,29.93,West,263,0.0,0.0,97,0.00,CLR,,0.00,WeatherDisplay:10.37,2013-03-12 05:06:00,
2013-03-12 01:11:00,49.2,48.4,29.94,WSW,253,2.0,2.0,97,0.00,CLR,,0.00,WeatherDisplay:10.37,2013-03-12 05:11:00,
2013-03-12 01:16:00,49.1,48.3,29.93,WSW,253,1.1,1.1,97,0.00,CLR,,0.00,WeatherDisplay:10.37,2013-03-12 05:16:00,
2013-03-12 01:21:00,49.1,48.3,29.93,SW,223,0.0,0.0,97,0.00,CLR,,0.00,WeatherDisplay:10.37,2013-03-12 05:21:00,
2013-03-12 01:26:00,49.0,48.2,29.93,SW,234,3.5,3.5,97,0.00,CLR,,0.00,WeatherDisplay:10.37,2013-03-12 05:26:00,
2013-03-12 01:31:00,48.9,48.1,29.93,SW,234,1.0,1.0,97,0.00,CLR,,0.00,WeatherDisplay:10.37,2013-03-12 05:31:00,
2013-03-12 01:36:00,48.8,48.0,29.93,SW,227,7.0,7.0,97,0.00,CLR,,0.00,WeatherDisplay:10.37,2013-03-12 05:36:00,
2013-03-12 01:41:00,48.7,47.9,29.94,WSW,256,6.9,6.9,97,0.00,CLR,,0.00,WeatherDisplay:10.37,2013-03-12 05:41:00,
2013-03-12 01:46:00,48.5,47.4,29.94,West,278,5.8,5.8,96,0.00,CLR,,0.00,WeatherDisplay:10.37,2013-03-12 05:46:00,
2013-03-12 01:51:00,48.4,47.3,29.93,WSW,238,3.0,3.0,96,0.00,CLR,,0.00,WeatherDisplay:10.37,2013-03-12 05:51:00,
2013-03-12 01:56:00,48.3,47.2,29.94,WSW,244,3.5,3.5,96,0.00,CLR,,0.00,WeatherDisplay:10.37,2013-03-12 05:56:00,
2013-03-12 02:01:00,48.1,47.0,29.94,WSW,244,1.1,0.0,96,0.00,CLR,,0.00,WeatherDisplay:10.37,2013-03-12 06:01:00,
2013-03-12 02:06:00,48.0,46.9,29.94,SW,223,4.6,4.6,96,0.00,CLR,,0.00,WeatherDisplay:10.37,2013-03-12 06:06:00,
2013-03-12 02:11:00,47.9,46.8,29.94,WSW,245,3.5,3.5,96,0.00,CLR,,0.00,WeatherDisplay:10.37,2013-03-12 06:11:00,
2013-03-12 02:16:00,47.8,46.7,29.94,West,264,5.8,5.8,96,0.00,CLR,,0.00,WeatherDisplay:10.37,2013-03-12 06:16:00,
2013-03-12 02:21:00,47.7,46.6,29.94,WSW,246,3.5,3.5,96,0.00,CLR,,0.00,WeatherDisplay:10.37,2013-03-12 06:21:00,
2013-03-12 02:26:00,47.6,46.5,29.94,WSW,242,3.5,3.5,96,0.00,CLR,,0.00,WeatherDisplay:10.37,2013-03-12 06:26:00,
2013-03-12 02:31:00,47.4,46.3,29.94,WSW,244,3.5,3.5,96,0.00,CLR,,0.00,WeatherDisplay:10.37,2013-03-12 06:31:00,
2013-03-12 02:36:00,47.4,46.3,29.94,WSW,250,2.3,2.3,96,0.00,CLR,,0.00,WeatherDisplay:10.37,2013-03-12 06:36:00,
2013-03-12 02:41:00,47.4,46.3,29.94,WSW,250,0.0,0.0,96,0.00,CLR,,0.00,WeatherDisplay:10.37,2013-03-12 06:41:00,
2013-03-12 02:46:00,47.3,46.2,29.94,WSW,250,1.0,0.0,96,0.00,CLR,,0.00,WeatherDisplay:10.37,2013-03-12 06:46:00,
2013-03-12 02:51:00,47.1,46.0,29.94,South,184,2.3,2.3,96,0.00,CLR,,0.00,WeatherDisplay:10.37,2013-03-12 06:51:00,
2013-03-12 02:56:00,47.0,45.9,29.94,South,172,2.0,2.0,96,0.00,CLR,,0.00,WeatherDisplay:10.37,2013-03-12 06:56:00,
2013-03-12 03:01:00,46.8,45.7,29.94,South,172,1.1,1.1,96,0.00,CLR,,0.00,WeatherDisplay:10.37,2013-03-12 07:01:00,
2013-03-12 03:06:00,46.5,45.4,29.93,South,172,0.0,0.0,96,0.00,CLR,,0.00,WeatherDisplay:10.37,2013-03-12 07:06:00,
2013-03-12 03:11:00,46.3,45.2,29.93,South,172,0.0,0.0,96,0.00,CLR,,0.00,WeatherDisplay:10.37,2013-03-12 07:11:00,
2013-03-12 03:16:00,46.1,45.0,29.94,South,169,2.3,2.3,96,0.00,CLR,,0.00,WeatherDisplay:10.37,2013-03-12 07:16:00,
2013-03-12 03:21:00,45.9,44.8,29.94,South,169,0.0,0.0,96,0.00,CLR,,0.00,WeatherDisplay:10.37,2013-03-12 07:21:00,
2013-03-12 03:26:00,45.6,44.5,29.94,ESE,123,3.5,0.0,96,0.00,CLR,,0.00,WeatherDisplay:10.37,2013-03-12 07:26:00,
2013-03-12 03:31:00,45.4,44.3,29.94,ESE,122,0.0,0.0,96,0.00,CLR,,0.00,WeatherDisplay:10.37,2013-03-12 07:31:00,
2013-03-12 03:36:00,45.2,44.1,29.94,ESE,123,0.0,0.0,96,0.00,CLR,,0.00,WeatherDisplay:10.37,2013-03-12 07:36:00,
2013-03-12 03:41:00,44.9,43.8,29.94,ESE,122,0.0,0.0,96,0.00,CLR,,0.00,WeatherDisplay:10.37,2013-03-12 07:41:00,
2013-03-12 03:46:00,44.6,43.5,29.94,ESE,123,0.0,0.0,96,0.00,CLR,,0.00,WeatherDisplay:10.37,2013-03-12 07:46:00,
2013-03-12 03:51:00,44.3,43.0,29.95,ESE,122,0.0,0.0,95,0.00,CLR,,0.00,WeatherDisplay:10.37,2013-03-12 07:51:00,
2013-03-12 03:56:00,43.9,42.6,29.95,ESE,122,0.0,0.0,95,0.00,CLR,,0.00,WeatherDisplay:10.37,2013-03-12 07:56:00,
2013-03-12 04:01:00,43.6,42.5,29.95,ESE,123,0.0,0.0,96,0.00,CLR,,0.00,WeatherDisplay:10.37,2013-03-12 08:01:00,
2013-03-12 04:06:00,43.5,42.4,29.95,ESE,122,0.0,0.0,96,0.00,CLR,,0.00,WeatherDisplay:10.37,2013-03-12 08:06:00,
2013-03-12 04:11:00,43.3,42.2,29.95,ESE,122,0.0,0.0,96,0.00,CLR,,0.00,WeatherDisplay:10.37,2013-03-12 08:11:00,
2013-03-12 04:16:00,43.2,42.1,29.96,ESE,123,0.0,0.0,96,0.00,CLR,,0.00,WeatherDisplay:10.37,2013-03-12 08:16:00,
2013-03-12 04:21:00,43.0,41.9,29.96,ESE,123,0.0,0.0,96,0.00,CLR,,0.00,WeatherDisplay:10.37,2013-03-12 08:21:00,
2013-03-12 04:26:00,42.8,41.7,29.95,ESE,122,0.0,0.0,96,0.00,CLR,,0.00,WeatherDisplay:10.37,2013-03-12 08:26:00,
2013-03-12 04:31:00,42.6,41.5,29.95,ESE,123,0.0,0.0,96,0.00,CLR,,0.00,WeatherDisplay:10.37,2013-03-12 08:31:00,
2013-03-12 04:36:00,42.4,41.3,29.96,South,180,1.1,0.0,96,0.00,CLR,,0.00,WeatherDisplay:10.37,2013-03-12 08:36:00,
2013-03-12 04:41:00,42.0,40.7,29.96,NE,34,0.0,0.1,95,0.00,CLR,,0.00,WeatherDisplay:10.37,2013-03-12 08:41:00,
2013-03-12 04:46:00,41.6,40.3,29.96,North,355,0.0,0.0,95,0.00,CLR,,0.00,WeatherDisplay:10.37,2013-03-12 08:46:00,
2013-03-12 04:51:00,41.4,40.1,29.96,North,355,0.0,0.0,95,0.00,CLR,,0.00,WeatherDisplay:10.37,2013-03-12 08:51:00,
2013-03-12 04:56:00,41.1,39.8,29.96,North,355,0.0,0.0,95,0.00,CLR,,0.00,WeatherDisplay:10.37,2013-03-12 08:56:00,
2013-03-12 05:01:00,40.9,39.6,29.96,North,355,0.0,0.0,95,0.00,CLR,,0.00,WeatherDisplay:10.37,2013-03-12 09:01:00,
2013-03-12 05:06:00,40.6,39.5,29.97,NE,56,2.3,0.0,96,0.00,CLR,,0.00,WeatherDisplay:10.37,2013-03-12 09:06:00,
2013-03-12 05:11:00,40.4,39.4,29.97,NE,55,0.0,0.0,96,0.00,CLR,,0.00,WeatherDisplay:10.37,2013-03-12 09:11:00,
2013-03-12 05:16:00,40.0,39.0,29.97,NE,55,0.0,0.0,96,0.00,CLR,,0.00,WeatherDisplay:10.37,2013-03-12 09:16:00,
2013-03-12 05:21:00,39.7,38.4,29.97,NE,55,0.0,0.0,95,0.00,CLR,,0.00,WeatherDisplay:10.37,2013-03-12 09:21:00,
2013-03-12 05:26:00,39.4,38.4,29.97,NE,56,0.0,0.0,96,0.00,CLR,,0.00,WeatherDisplay:10.37,2013-03-12 09:26:00,
2013-03-12 05:31:00,39.1,38.1,29.98,NE,55,0.0,0.0,96,0.00,CLR,,0.00,WeatherDisplay:10.37,2013-03-12 09:31:00,
2013-03-12 05:36:00,39.0,38.0,29.97,NE,55,0.0,0.0,96,0.00,CLR,,0.00,WeatherDisplay:10.37,2013-03-12 09:36:00,
2013-03-12 05:41:00,38.8,37.8,29.97,ENE,59,1.0,1.0,96,0.00,CLR,,0.00,WeatherDisplay:10.37,2013-03-12 09:41:00,
2013-03-12 05:46:00,38.6,37.6,29.97,East,88,1.1,0.0,96,0.00,CLR,,0.00,WeatherDisplay:10.37,2013-03-12 09:46:00,
2013-03-12 05:51:00,38.4,37.4,29.98,East,89,0.0,0.0,96,0.00,CLR,,0.00,WeatherDisplay:10.37,2013-03-12 09:51:00,
2013-03-12 05:56:00,38.4,37.4,29.98,East,88,0.0,0.0,96,0.00,CLR,,0.00,WeatherDisplay:10.37,2013-03-12 09:56:00,
2013-03-12 06:01:00,38.2,37.2,29.98,East,89,0.0,0.0,96,0.00,CLR,,0.00,WeatherDisplay:10.37,2013-03-12 10:01:00,
2013-03-12 06:06:00,38.0,37.0,29.98,East,88,0.0,0.0,96,0.00,CLR,,0.00,WeatherDisplay:10.37,2013-03-12 10:06:00,
2013-03-12 06:11:00,37.9,36.9,29.98,East,89,0.0,0.0,96,0.00,CLR,,0.00,WeatherDisplay:10.37,2013-03-12 10:11:00,
2013-03-12 06:16:00,37.6,36.6,29.98,ESE,107,1.1,1.1,96,0.00,CLR,,0.00,WeatherDisplay:10.37,2013-03-12 10:16:00,
2013-03-12 06:21:00,37.3,36.3,29.99,SE,130,1.0,1.0,96,0.00,CLR,,0.00,WeatherDisplay:10.37,2013-03-12 10:21:00,
2013-03-12 06:26:00,37.3,36.3,30.00,SE,130,1.1,1.1,96,0.00,CLR,,0.00,WeatherDisplay:10.37,2013-03-12 10:26:00,
2013-03-12 06:31:00,37.2,36.2,29.99,NE,38,2.3,2.3,96,0.00,CLR,,0.00,WeatherDisplay:10.37,2013-03-12 10:31:00,
2013-03-12 06:36:00,37.0,36.0,30.00,NE,38,2.0,2.0,96,0.00,CLR,,0.00,WeatherDisplay:10.37,2013-03-12 10:36:00,
2013-03-12 06:41:00,36.7,35.7,30.00,ESE,117,3.5,3.5,96,0.00,CLR,,0.00,WeatherDisplay:10.37,2013-03-12 10:41:00,
2013-03-12 06:46:00,36.5,35.5,30.00,SW,225,2.3,2.3,96,0.00,CLR,,0.00,WeatherDisplay:10.37,2013-03-12 10:46:00,
2013-03-12 06:52:00,36.3,35.3,30.01,SSE,158,0.0,0.0,96,0.00,CLR,,0.00,WeatherDisplay:10.37,2013-03-12 10:52:00,
2013-03-12 06:57:00,36.3,35.3,30.01,East,90,2.0,2.0,96,0.00,CLR,,0.00,WeatherDisplay:10.37,2013-03-12 10:57:00,
2013-03-12 07:02:00,36.4,35.6,30.01,SE,138,3.5,0.0,97,0.00,CLR,,0.00,WeatherDisplay:10.37,2013-03-12 11:02:00,
2013-03-12 07:07:00,36.4,35.6,30.01,ESE,115,4.6,4.6,97,0.00,CLR,,0.00,WeatherDisplay:10.37,2013-03-12 11:07:00,
2013-03-12 07:12:00,36.4,35.6,30.02,ENE,66,3.5,3.5,97,0.00,CLR,,0.00,WeatherDisplay:10.37,2013-03-12 11:12:00,
2013-03-12 07:17:00,36.5,35.7,30.03,ENE,65,1.0,0.0,97,0.00,CLR,,0.00,WeatherDisplay:10.37,2013-03-12 11:17:00,
2013-03-12 07:22:00,36.4,35.6,30.04,ESE,117,3.0,3.0,97,0.00,CLR,,0.00,WeatherDisplay:10.37,2013-03-12 11:22:00,
2013-03-12 07:27:00,36.3,35.5,30.04,NE,45,3.5,3.5,97,0.00,CLR,,0.00,WeatherDisplay:10.37,2013-03-12 11:27:00,
2013-03-12 07:32:00,36.2,35.4,30.04,SW,225,2.3,2.3,97,0.00,CLR,,0.00,WeatherDisplay:10.37,2013-03-12 11:32:00,
2013-03-12 07:37:00,36.2,35.4,30.04,West,273,1.0,1.0,97,0.00,CLR,,0.00,WeatherDisplay:10.37,2013-03-12 11:37:00,
2013-03-12 07:42:00,36.1,35.3,30.04,SSE,164,4.6,4.6,97,0.00,CLR,,0.00,WeatherDisplay:10.37,2013-03-12 11:42:00,
2013-03-12 07:47:00,36.1,35.1,30.04,SSE,148,0.0,0.1,96,0.00,CLR,,0.00,WeatherDisplay:10.37,2013-03-12 11:47:00,
2013-03-12 07:52:00,36.0,35.0,30.04,SSE,148,0.0,0.0,96,0.00,CLR,,0.00,WeatherDisplay:10.37,2013-03-12 11:52:00,
2013-03-12 07:57:00,35.9,34.9,30.05,SE,134,1.0,1.0,96,0.00,CLR,,0.00,WeatherDisplay:10.37,2013-03-12 11:57:00,
2013-03-12 08:02:00,35.8,34.8,30.04,SE,128,2.3,2.3,96,0.00,CLR,,0.00,WeatherDisplay:10.37,2013-03-12 12:02:00,
2013-03-12 08:07:00,35.7,34.7,30.04,SE,126,3.5,3.5,96,0.00,CLR,,0.00,WeatherDisplay:10.37,2013-03-12 12:07:00,
2013-03-12 08:12:00,35.5,34.5,30.04,SE,124,0.0,0.0,96,0.00,CLR,,0.00,WeatherDisplay:10.37,2013-03-12 12:12:00,
2013-03-12 08:17:00,35.3,34.3,30.05,ESE,119,1.1,1.1,96,0.00,CLR,,0.00,WeatherDisplay:10.37,2013-03-12 12:17:00,
2013-03-12 08:22:00,35.2,34.2,30.05,ESE,117,1.1,0.0,96,0.00,CLR,,0.00,WeatherDisplay:10.37,2013-03-12 12:22:00,
2013-03-12 08:27:00,35.2,34.4,30.05,ESE,121,3.5,3.5,97,0.00,CLR,,0.00,WeatherDisplay:10.37,2013-03-12 12:27:00,
2013-03-12 08:32:00,35.2,34.4,30.05,ESE,121,0.0,0.0,97,0.00,CLR,,0.00,WeatherDisplay:10.37,2013-03-12 12:32:00,
2013-03-12 08:37:00,35.2,34.4,30.06,SE,132,0.0,0.0,97,0.00,CLR,,0.00,WeatherDisplay:10.37,2013-03-12 12:37:00,
2013-03-12 08:42:00,35.3,34.5,30.06,ESE,117,2.3,2.3,97,0.00,CLR,,0.00,WeatherDisplay:10.37,2013-03-12 12:42:00,
2013-03-12 08:47:00,35.5,34.7,30.05,NE,48,1.1,1.1,97,0.00,CLR,,0.00,WeatherDisplay:10.37,2013-03-12 12:47:00,
2013-03-12 08:52:00,35.7,34.9,30.06,SSE,158,1.0,1.0,97,0.00,CLR,,0.00,WeatherDisplay:10.37,2013-03-12 12:52:00,
2013-03-12 08:57:00,35.8,35.0,30.06,SSE,159,2.3,2.3,97,0.00,CLR,,0.00,WeatherDisplay:10.37,2013-03-12 12:57:00,
2013-03-12 09:02:00,36.0,35.2,30.06,ESE,108,1.1,1.1,97,0.00,CLR,,0.00,WeatherDisplay:10.37,2013-03-12 13:02:00,
2013-03-12 09:07:00,36.2,35.4,30.06,SE,142,0.0,0.0,97,0.00,CLR,,0.00,WeatherDisplay:10.37,2013-03-12 13:07:00,
2013-03-12 09:12:00,36.2,35.4,30.06,SE,142,1.1,1.1,97,0.00,CLR,,0.00,WeatherDisplay:10.37,2013-03-12 13:12:00,
2013-03-12 09:17:00,36.4,35.6,30.06,ESE,117,3.5,3.5,97,0.00,CLR,,0.00,WeatherDisplay:10.37,2013-03-12 13:17:00,
2013-03-12 09:22:00,36.8,36.0,30.06,ESE,115,2.3,0.0,97,0.00,CLR,,0.00,WeatherDisplay:10.37,2013-03-12 13:22:00,
2013-03-12 09:27:00,37.0,36.2,30.06,West,267,0.0,0.0,97,0.00,CLR,,0.00,WeatherDisplay:10.37,2013-03-12 13:27:00,
2013-03-12 09:32:00,37.1,36.1,30.06,South,180,3.5,0.0,96,0.00,CLR,,0.00,WeatherDisplay:10.37,2013-03-12 13:32:00,
2013-03-12 09:37:00,37.3,36.3,30.06,SSW,194,1.1,1.1,96,0.00,CLR,,0.00,WeatherDisplay:10.37,2013-03-12 13:37:00,
2013-03-12 09:42:00,37.6,36.6,30.06,SSW,192,1.1,0.0,96,0.00,CLR,,0.00,WeatherDisplay:10.37,2013-03-12 13:42:00,
2013-03-12 09:47:00,38.1,37.3,30.06,SSE,155,2.3,0.0,97,0.00,CLR,,0.00,WeatherDisplay:10.37,2013-03-12 13:47:00,
2013-03-12 09:53:00,38.8,38.0,30.05,SE,144,3.0,3.0,97,0.00,CLR,,0.00,WeatherDisplay:10.37,2013-03-12 13:53:00,
2013-03-12 09:58:00,39.4,38.6,30.05,ESE,110,3.5,3.5,97,0.00,CLR,,0.00,WeatherDisplay:10.37,2013-03-12 13:58:00,
2013-03-12 10:03:00,39.9,38.9,30.06,SSE,155,2.3,2.3,96,0.00,CLR,,0.00,WeatherDisplay:10.37,2013-03-12 14:03:00,
2013-03-12 10:08:00,40.4,39.1,30.06,SSE,161,2.3,2.3,95,0.00,CLR,,0.00,WeatherDisplay:10.37,2013-03-12 14:08:00,
2013-03-12 10:13:00,40.6,39.0,30.07,SSE,161,1.1,1.1,94,0.00,CLR,,0.00,WeatherDisplay:10.37,2013-03-12 14:13:00,
2013-03-12 10:18:00,41.0,38.9,30.08,SSW,202,4.0,4.0,92,0.00,CLR,,0.00,WeatherDisplay:10.37,2013-03-12 14:18:00,
2013-03-12 10:23:00,41.4,38.7,30.07,SW,231,3.5,3.5,90,0.00,CLR,,0.00,WeatherDisplay:10.37,2013-03-12 14:23:00,
2013-03-12 10:28:00,41.5,38.2,30.06,SW,230,1.1,1.1,88,0.00,CLR,,0.00,WeatherDisplay:10.37,2013-03-12 14:28:00,
2013-03-12 10:33:00,41.7,38.4,30.07,ESE,110,2.0,2.0,88,0.00,CLR,,0.00,WeatherDisplay:10.37,2013-03-12 14:33:00,
2013-03-12 10:38:00,42.3,38.1,30.07,SE,144,3.5,0.0,85,0.00,CLR,,0.00,WeatherDisplay:10.37,2013-03-12 14:38:00,
2013-03-12 10:43:00,42.7,38.5,30.08,South,173,0.0,0.1,85,0.00,CLR,,0.00,WeatherDisplay:10.37,2013-03-12 14:43:00,
2013-03-12 10:48:00,42.9,38.1,30.08,SE,143,0.0,0.2,83,0.00,CLR,,0.00,WeatherDisplay:10.37,2013-03-12 14:48:00,
2013-03-12 10:54:00,43.2,37.4,30.08,SW,234,6.9,6.9,80,0.00,CLR,,0.00,WeatherDisplay:10.37,2013-03-12 14:54:00,
2013-03-12 10:59:00,43.3,36.6,30.08,ESE,111,4.6,4.6,77,0.00,CLR,,0.00,WeatherDisplay:10.37,2013-03-12 14:59:00,
2013-03-12 11:04:00,43.4,36.7,30.08,ESE,111,3.5,3.5,77,0.00,CLR,,0.00,WeatherDisplay:10.37,2013-03-12 15:04:00,
2013-03-12 11:09:00,43.8,38.7,30.08,ESE,119,3.5,0.0,82,0.00,CLR,,0.00,WeatherDisplay:10.37,2013-03-12 15:09:00,
2013-03-12 11:14:00,44.3,38.2,30.09,SE,140,3.5,0.0,79,0.00,CLR,,0.00,WeatherDisplay:10.37,2013-03-12 15:14:00,
2013-03-12 11:19:00,45.1,39.6,30.09,SSE,148,3.5,3.5,81,0.00,CLR,,0.00,WeatherDisplay:10.37,2013-03-12 15:19:00,
2013-03-12 11:24:00,45.9,38.8,30.10,SE,145,4.6,4.6,76,0.00,CLR,,0.00,WeatherDisplay:10.37,2013-03-12 15:24:00,
2013-03-12 11:29:00,46.4,36.8,30.10,ENE,67,2.3,0.0,69,0.00,CLR,,0.00,WeatherDisplay:10.37,2013-03-12 15:29:00,
2013-03-12 11:34:00,46.7,37.1,30.09,SSE,160,3.5,3.5,69,0.00,CLR,,0.00,WeatherDisplay:10.37,2013-03-12 15:34:00,
2013-03-12 11:39:00,47.1,37.1,30.09,NNE,29,4.6,4.6,68,0.00,CLR,,0.00,WeatherDisplay:10.37,2013-03-12 15:39:00,
2013-03-12 11:44:00,47.4,36.6,30.10,South,190,2.3,2.3,66,0.00,CLR,,0.00,WeatherDisplay:10.37,2013-03-12 15:44:00,
2013-03-12 11:49:00,47.8,36.6,30.10,SSE,163,4.0,4.0,65,0.00,CLR,,0.00,WeatherDisplay:10.37,2013-03-12 15:49:00,
2013-03-12 11:54:00,48.4,36.0,30.10,South,178,5.8,5.8,62,0.00,CLR,,0.00,WeatherDisplay:10.37,2013-03-12 15:54:00,
2013-03-12 11:59:00,48.9,37.3,30.10,South,182,3.5,3.5,64,0.00,CLR,,0.00,WeatherDisplay:10.37,2013-03-12 15:59:00,
2013-03-12 12:04:00,49.4,37.3,30.10,ESE,122,2.3,2.3,63,0.00,CLR,,0.00,WeatherDisplay:10.37,2013-03-12 16:04:00,
2013-03-12 12:09:00,49.9,35.7,30.10,WSW,238,5.8,5.8,58,0.00,CLR,,0.00,WeatherDisplay:10.37,2013-03-12 16:09:00,
2013-03-12 12:14:00,50.4,35.7,30.10,East,98,5.8,5.8,57,0.00,CLR,,0.00,WeatherDisplay:10.37,2013-03-12 16:14:00,
2013-03-12 12:19:00,50.7,34.6,30.10,ESE,121,3.5,3.5,54,0.00,CLR,,0.00,WeatherDisplay:10.37,2013-03-12 16:19:00,
2013-03-12 12:24:00,51.4,38.0,30.10,West,281,6.9,6.9,60,0.00,CLR,,0.00,WeatherDisplay:10.37,2013-03-12 16:24:00,
2013-03-12 12:29:00,52.2,37.0,30.10,WSW,252,4.6,4.8,56,0.00,CLR,,0.00,WeatherDisplay:10.37,2013-03-12 16:29:00,
2013-03-12 12:34:00,52.8,36.6,30.10,SW,228,5.8,5.8,54,0.00,CLR,,0.00,WeatherDisplay:10.37,2013-03-12 16:34:00,
2013-03-12 12:39:00,53.0,36.3,30.10,West,263,4.6,4.6,53,0.00,CLR,,0.00,WeatherDisplay:10.37,2013-03-12 16:39:00,
2013-03-12 12:44:00,53.4,39.0,30.10,SSW,203,2.3,2.3,58,0.00,CLR,,0.00,WeatherDisplay:10.37,2013-03-12 16:44:00,
2013-03-12 12:49:00,53.9,35.7,30.10,SW,233,7.0,7.0,50,0.00,CLR,,0.00,WeatherDisplay:10.37,2013-03-12 16:49:00,
2013-03-12 12:54:00,54.1,39.2,30.09,West,260,4.6,4.6,57,0.00,CLR,,0.00,WeatherDisplay:10.37,2013-03-12 16:54:00,
2013-03-12 12:59:00,54.5,34.1,30.09,SW,230,6.0,6.0,46,0.00,CLR,,0.00,WeatherDisplay:10.37,2013-03-12 16:59:00,
2013-03-12 13:04:00,55.0,35.7,30.09,SSW,196,4.6,5.3,48,0.00,CLR,,0.00,WeatherDisplay:10.37,2013-03-12 17:04:00,
2013-03-12 13:09:00,55.0,34.6,30.09,WSW,258,5.8,5.8,46,0.00,CLR,,0.00,WeatherDisplay:10.37,2013-03-12 17:09:00,
2013-03-12 13:14:00,55.4,36.0,30.10,WSW,252,3.5,3.5,48,0.00,CLR,,0.00,WeatherDisplay:10.37,2013-03-12 17:14:00,
2013-03-12 13:19:00,56.1,33.3,30.10,West,269,3.5,3.5,42,0.00,CLR,,0.00,WeatherDisplay:10.37,2013-03-12 17:19:00,
2013-03-12 13:24:00,56.9,37.4,30.10,NW,311,4.0,4.7,48,0.00,CLR,,0.00,WeatherDisplay:10.37,2013-03-12 17:24:00,
2013-03-12 13:29:00,57.5,32.7,30.09,WNW,300,6.9,6.9,39,0.00,CLR,,0.00,WeatherDisplay:10.37,2013-03-12 17:29:00,
2013-03-12 13:34:00,57.9,37.2,30.09,WSW,250,7.0,7.0,46,0.00,CLR,,0.00,WeatherDisplay:10.37,2013-03-12 17:34:00,
2013-03-12 13:39:00,58.9,37.6,30.09,West,275,4.6,4.6,45,0.00,CLR,,0.00,WeatherDisplay:10.37,2013-03-12 17:39:00,
2013-03-12 13:44:00,59.4,35.1,30.10,WSW,240,3.5,3.5,40,0.00,CLR,,0.00,WeatherDisplay:10.37,2013-03-12 17:44:00,
2013-03-12 13:49:00,59.8,37.2,30.09,WSW,240,9.2,9.2,43,0.00,CLR,,0.00,WeatherDisplay:10.37,2013-03-12 17:49:00,
2013-03-12 13:54:00,60.0,38.6,30.09,SSW,203,3.5,4.7,45,0.00,CLR,,0.00,WeatherDisplay:10.37,2013-03-12 17:54:00,
2013-03-12 13:59:00,60.1,37.5,30.09,West,281,9.2,9.2,43,0.00,CLR,,0.00,WeatherDisplay:10.37,2013-03-12 17:59:00,
2013-03-12 14:04:00,60.2,38.8,30.09,NNW,337,4.6,4.6,45,0.00,CLR,,0.00,WeatherDisplay:10.37,2013-03-12 18:04:00,
2013-03-12 14:09:00,60.9,37.0,30.09,West,267,3.5,3.5,41,0.00,CLR,,0.00,WeatherDisplay:10.37,2013-03-12 18:09:00,
2013-03-12 14:14:00,61.1,36.6,30.09,SSW,210,3.5,3.5,40,0.00,CLR,,0.00,WeatherDisplay:10.37,2013-03-12 18:14:00,
2013-03-12 14:19:00,61.1,38.4,30.09,NW,304,3.5,3.5,43,0.00,CLR,,0.00,WeatherDisplay:10.37,2013-03-12 18:19:00,
2013-03-12 14:24:00,60.7,35.6,30.09,SW,233,3.5,3.5,39,0.00,CLR,,0.00,WeatherDisplay:10.37,2013-03-12 18:24:00,
2013-03-12 14:29:00,60.6,38.6,30.09,SW,214,9.2,9.2,44,0.00,CLR,,0.00,WeatherDisplay:10.37,2013-03-12 18:29:00,
2013-03-12 14:34:00,60.9,36.4,30.09,West,263,17.3,17.3,40,0.00,CLR,,0.00,WeatherDisplay:10.37,2013-03-12 18:34:00,
2013-03-12 14:39:00,60.7,37.5,30.09,WSW,250,9.0,9.0,42,0.00,CLR,,0.00,WeatherDisplay:10.37,2013-03-12 18:39:00,
2013-03-12 14:44:00,60.9,37.0,30.09,West,259,6.9,6.9,41,0.00,CLR,,0.00,WeatherDisplay:10.37,2013-03-12 18:44:00,
2013-03-12 14:49:00,60.9,37.0,30.09,SSW,198,10.4,10.4,41,0.00,CLR,,0.00,WeatherDisplay:10.37,2013-03-12 18:49:00,
2013-03-12 14:54:00,60.6,36.1,30.08,WSW,246,10.4,10.4,40,0.00,CLR,,0.00,WeatherDisplay:10.37,2013-03-12 18:54:00,
2013-03-12 14:59:00,60.4,37.2,30.08,SSW,205,6.9,6.9,42,0.00,CLR,,0.00,WeatherDisplay:10.37,2013-03-12 18:59:00,
2013-03-12 15:04:00,60.3,38.3,30.08,WSW,244,5.8,5.8,44,0.00,CLR,,0.00,WeatherDisplay:10.37,2013-03-12 19:04:00,
2013-03-12 15:09:00,60.1,36.9,30.08,WNW,286,2.3,2.3,42,0.00,CLR,,0.00,WeatherDisplay:10.37,2013-03-12 19:09:00,
2013-03-12 15:14:00,60.5,36.0,30.08,NW,319,11.5,11.5,40,0.00,CLR,,0.00,WeatherDisplay:10.37,2013-03-12 19:14:00,
2013-03-12 15:19:00,60.6,36.1,30.09,NW,319,6.9,6.9,40,0.00,CLR,,0.00,WeatherDisplay:10.37,2013-03-12 19:19:00,
2013-03-12 15:24:00,60.8,35.0,30.09,WNW,294,6.9,6.9,38,0.00,CLR,,0.00,WeatherDisplay:10.37,2013-03-12 19:24:00,
2013-03-12 15:29:00,60.7,35.6,30.09,West,267,4.6,4.6,39,0.00,CLR,,0.00,WeatherDisplay:10.37,2013-03-12 19:29:00,
2013-03-12 15:34:00,60.5,36.0,30.09,WSW,237,11.5,11.5,40,0.00,CLR,,0.00,WeatherDisplay:10.37,2013-03-12 19:34:00,
2013-03-12 15:39:00,60.3,35.2,30.09,West,261,8.1,8.1,39,0.00,CLR,,0.00,WeatherDisplay:10.37,2013-03-12 19:39:00,
2013-03-12 15:44:00,60.4,35.9,30.08,West,268,11.5,11.5,40,0.00,CLR,,0.00,WeatherDisplay:10.37,2013-03-12 19:44:00,
2013-03-12 15:49:00,60.3,35.2,30.09,WNW,302,5.8,5.8,39,0.00,CLR,,0.00,WeatherDisplay:10.37,2013-03-12 19:49:00,
2013-03-12 15:54:00,60.0,35.6,30.08,WNW,302,4.0,4.0,40,0.00,CLR,,0.00,WeatherDisplay:10.37,2013-03-12 19:54:00,
2013-03-12 15:59:00,60.2,35.1,30.09,NNW,338,13.8,13.8,39,0.00,CLR,,0.00,WeatherDisplay:10.37,2013-03-12 19:59:00,
2013-03-12 16:04:00,60.0,35.6,30.08,WSW,244,4.6,4.6,40,0.00,CLR,,0.00,WeatherDisplay:10.37,2013-03-12 20:04:00,
2013-03-12 16:09:00,59.7,34.7,30.08,West,269,13.8,13.8,39,0.00,CLR,,0.00,WeatherDisplay:10.37,2013-03-12 20:09:00,
2013-03-12 16:14:00,59.5,36.4,30.09,NNW,329,3.5,3.5,42,0.00,CLR,,0.00,WeatherDisplay:10.37,2013-03-12 20:14:00,
2013-03-12 16:19:00,59.6,35.2,30.09,NW,326,3.5,3.5,40,0.00,CLR,,0.00,WeatherDisplay:10.37,2013-03-12 20:19:00,
2013-03-12 16:24:00,59.8,35.4,30.09,West,274,5.8,5.8,40,0.00,CLR,,0.00,WeatherDisplay:10.37,2013-03-12 20:24:00,
2013-03-12 16:29:00,59.9,35.5,30.08,WSW,244,5.8,5.8,40,0.00,CLR,,0.00,WeatherDisplay:10.37,2013-03-12 20:29:00,
2013-03-12 16:34:00,60.0,35.0,30.09,WNW,285,5.8,5.8,39,0.00,CLR,,0.00,WeatherDisplay:10.37,2013-03-12 20:34:00,
2013-03-12 16:39:00,60.1,33.7,30.09,WNW,286,6.9,6.9,37,0.00,CLR,,0.00,WeatherDisplay:10.37,2013-03-12 20:39:00,
2013-03-12 16:44:00,59.9,34.2,30.09,NNW,327,6.9,6.9,38,0.00,CLR,,0.00,WeatherDisplay:10.37,2013-03-12 20:44:00,
2013-03-12 16:49:00,59.8,34.8,30.09,NW,311,5.0,5.0,39,0.00,CLR,,0.00,WeatherDisplay:10.37,2013-03-12 20:49:00,
2013-03-12 16:54:00,59.8,35.4,30.09,NW,315,5.8,5.8,40,0.00,CLR,,0.00,WeatherDisplay:10.37,2013-03-12 20:54:00,
2013-03-12 16:59:00,59.7,34.7,30.09,WNW,300,5.8,5.8,39,0.00,CLR,,0.00,WeatherDisplay:10.37,2013-03-12 20:59:00,
2013-03-12 17:04:00,59.8,34.8,30.09,West,268,4.6,4.6,39,0.00,CLR,,0.00,WeatherDisplay:10.37,2013-03-12 21:04:00,
2013-03-12 17:09:00,59.9,34.9,30.09,West,275,5.8,5.8,39,0.00,CLR,,0.00,WeatherDisplay:10.37,2013-03-12 21:09:00,
2013-03-12 17:14:00,59.7,33.4,30.10,WNW,292,11.5,11.5,37,0.00,CLR,,0.00,WeatherDisplay:10.37,2013-03-12 21:14:00,
2013-03-12 17:19:00,59.3,34.3,30.10,WNW,287,11.5,11.5,39,0.00,CLR,,0.00,WeatherDisplay:10.37,2013-03-12 21:19:00,
2013-03-12 17:24:00,59.1,34.8,30.11,NW,317,5.8,5.8,40,0.00,CLR,,0.00,WeatherDisplay:10.37,2013-03-12 21:24:00,
2013-03-12 17:29:00,58.8,33.9,30.11,WSW,252,8.0,8.0,39,0.00,CLR,,0.00,WeatherDisplay:10.37,2013-03-12 21:29:00,
2013-03-12 17:34:00,58.5,34.9,30.11,NW,308,6.0,6.0,41,0.00,CLR,,0.00,WeatherDisplay:10.37,2013-03-12 21:34:00,
2013-03-12 17:39:00,58.3,34.7,30.11,SSW,211,10.4,10.4,41,0.00,CLR,,0.00,WeatherDisplay:10.37,2013-03-12 21:39:00,
2013-03-12 17:44:00,58.0,35.0,30.11,NNW,337,3.5,3.5,42,0.00,CLR,,0.00,WeatherDisplay:10.37,2013-03-12 21:44:00,
2013-03-12 17:49:00,57.8,34.2,30.11,West,279,3.5,3.5,41,0.00,CLR,,0.00,WeatherDisplay:10.37,2013-03-12 21:49:00,
2013-03-12 17:54:00,57.6,34.1,30.11,WNW,291,3.5,3.5,41,0.00,CLR,,0.00,WeatherDisplay:10.37,2013-03-12 21:54:00,
2013-03-12 17:59:00,57.6,34.7,30.11,West,272,3.5,3.5,42,0.00,CLR,,0.00,WeatherDisplay:10.37,2013-03-12 21:59:00,
2013-03-12 18:04:00,57.6,34.7,30.11,WNW,291,3.5,3.5,42,0.00,CLR,,0.00,WeatherDisplay:10.37,2013-03-12 22:04:00,
2013-03-12 18:09:00,57.5,31.4,30.12,West,263,11.5,11.5,37,0.00,CLR,,0.00,WeatherDisplay:10.37,2013-03-12 22:09:00,
2013-03-12 18:14:00,57.3,34.4,30.12,WNW,283,3.5,3.5,42,0.00,CLR,,0.00,WeatherDisplay:10.37,2013-03-12 22:14:00,
2013-03-12 18:19:00,57.1,33.0,30.12,WSW,256,3.5,3.5,40,0.00,CLR,,0.00,WeatherDisplay:10.37,2013-03-12 22:19:00,
2013-03-12 18:24:00,56.9,32.8,30.12,West,267,4.0,4.0,40,0.00,CLR,,0.00,WeatherDisplay:10.37,2013-03-12 22:24:00,
2013-03-12 18:29:00,56.6,31.9,30.12,NW,317,6.9,6.9,39,0.00,CLR,,0.00,WeatherDisplay:10.37,2013-03-12 22:29:00,
2013-03-12 18:34:00,56.3,32.3,30.13,NW,312,6.0,6.0,40,0.00,CLR,,0.00,WeatherDisplay:10.37,2013-03-12 22:34:00,
2013-03-12 18:39:00,55.9,32.5,30.13,WSW,250,6.9,6.9,41,0.00,CLR,,0.00,WeatherDisplay:10.37,2013-03-12 22:39:00,
2013-03-12 18:44:00,55.4,31.5,30.14,WNW,286,9.0,9.0,40,0.00,CLR,,0.00,WeatherDisplay:10.37,2013-03-12 22:44:00,
2013-03-12 18:49:00,54.7,30.2,30.14,West,265,4.6,4.6,39,0.00,CLR,,0.00,WeatherDisplay:10.37,2013-03-12 22:49:00,
2013-03-12 18:54:00,54.1,32.1,30.15,SW,222,4.6,4.6,43,0.00,CLR,,0.00,WeatherDisplay:10.37,2013-03-12 22:54:00,
2013-03-12 18:59:00,53.7,31.1,30.16,WNW,293,3.5,3.5,42,0.00,CLR,,0.00,WeatherDisplay:10.37,2013-03-12 22:59:00,
2013-03-12 19:04:00,53.4,32.0,30.16,WNW,293,1.1,1.1,44,0.00,CLR,,0.00,WeatherDisplay:10.37,2013-03-12 23:04:00,
2013-03-12 19:09:00,53.1,31.7,30.16,West,269,2.3,2.3,44,0.00,CLR,,0.00,WeatherDisplay:10.37,2013-03-12 23:09:00,
2013-03-12 19:14:00,52.7,31.9,30.16,NW,323,2.3,2.3,45,0.00,CLR,,0.00,WeatherDisplay:10.37,2013-03-12 23:14:00,
2013-03-12 19:19:00,52.4,32.2,30.17,NW,325,1.1,1.1,46,0.00,CLR,,0.00,WeatherDisplay:10.37,2013-03-12 23:19:00,
2013-03-12 19:24:00,52.0,31.8,30.17,NW,325,0.0,0.0,46,0.00,CLR,,0.00,WeatherDisplay:10.37,2013-03-12 23:24:00,
2013-03-12 19:29:00,51.6,33.6,30.17,NW,325,0.0,0.0,50,0.00,CLR,,0.00,WeatherDisplay:10.37,2013-03-12 23:29:00,
2013-03-12 19:34:00,51.0,31.5,30.17,WSW,248,6.9,6.9,47,0.00,CLR,,0.00,WeatherDisplay:10.37,2013-03-12 23:34:00,
2013-03-12 19:39:00,50.4,31.9,30.18,West,268,5.8,5.8,49,0.00,CLR,,0.00,WeatherDisplay:10.37,2013-03-12 23:39:00,
2013-03-12 19:44:00,49.9,31.0,30.18,WSW,254,3.5,3.5,48,0.00,CLR,,0.00,WeatherDisplay:10.37,2013-03-12 23:44:00,
2013-03-12 19:49:00,49.5,32.1,30.18,WSW,257,3.5,3.5,51,0.00,CLR,,0.00,WeatherDisplay:10.37,2013-03-12 23:49:00,
2013-03-12 19:54:00,49.2,31.3,30.18,West,277,1.1,1.1,50,0.00,CLR,,0.00,WeatherDisplay:10.37,2013-03-12 23:54:00,
2013-03-12 19:59:00,49.0,33.1,30.19,West,276,3.5,3.5,54,0.00,CLR,,0.00,WeatherDisplay:10.37,2013-03-12 23:59:00,
2013-03-12 20:04:00,48.6,31.8,30.19,WSW,253,2.3,2.3,52,0.00,CLR,,0.00,WeatherDisplay:10.37,2013-03-13 00:04:00,
2013-03-12 20:09:00,48.3,32.4,30.19,WSW,253,0.0,0.0,54,0.00,CLR,,0.00,WeatherDisplay:10.37,2013-03-13 00:09:00,
2013-03-12 20:14:00,48.1,32.7,30.19,WSW,253,1.0,0.0,55,0.00,CLR,,0.00,WeatherDisplay:10.37,2013-03-13 00:14:00,
2013-03-12 20:19:00,47.7,31.9,30.19,WNW,284,1.1,1.1,54,0.00,CLR,,0.00,WeatherDisplay:10.37,2013-03-13 00:19:00,
2013-03-12 20:24:00,47.4,32.9,30.20,WNW,283,3.5,3.5,57,0.00,CLR,,0.00,WeatherDisplay:10.37,2013-03-13 00:24:00,
2013-03-12 20:29:00,47.1,33.1,30.20,WNW,283,0.0,0.0,58,0.00,CLR,,0.00,WeatherDisplay:10.37,2013-03-13 00:29:00,
2013-03-12 20:34:00,46.8,33.6,30.20,West,276,2.3,2.3,60,0.00,CLR,,0.00,WeatherDisplay:10.37,2013-03-13 00:34:00,
2013-03-12 20:39:00,46.4,34.1,30.20,West,276,0.0,0.0,62,0.00,CLR,,0.00,WeatherDisplay:10.37,2013-03-13 00:39:00,
2013-03-12 20:44:00,46.0,33.3,30.20,West,276,0.0,0.0,61,0.00,CLR,,0.00,WeatherDisplay:10.37,2013-03-13 00:44:00,
2013-03-12 20:49:00,45.6,33.7,30.20,West,276,0.0,0.0,63,0.00,CLR,,0.00,WeatherDisplay:10.37,2013-03-13 00:49:00,
2013-03-12 20:54:00,45.1,33.2,30.21,West,276,0.0,0.0,63,0.00,CLR,,0.00,WeatherDisplay:10.37,2013-03-13 00:54:00,
2013-03-12 20:59:00,44.7,33.6,30.21,West,272,3.5,3.5,65,0.00,CLR,,0.00,WeatherDisplay:10.37,2013-03-13 00:59:00,
2013-03-12 21:04:00,44.3,33.7,30.21,West,272,0.0,0.0,66,0.00,CLR,,0.00,WeatherDisplay:10.37,2013-03-13 01:04:00,
2013-03-12 21:09:00,43.9,34.0,30.21,WSW,248,0.0,0.1,68,0.00,CLR,,0.00,WeatherDisplay:10.37,2013-03-13 01:09:00,
2013-03-12 21:14:00,43.5,33.6,30.20,WSW,248,1.1,1.1,68,0.00,CLR,,0.00,WeatherDisplay:10.37,2013-03-13 01:14:00,
2013-03-12 21:20:00,43.1,34.3,30.21,WNW,284,3.5,3.5,71,0.00,CLR,,0.00,WeatherDisplay:10.37,2013-03-13 01:20:00,
2013-03-12 21:25:00,42.8,34.0,30.21,WNW,290,3.5,3.5,71,0.00,CLR,,0.00,WeatherDisplay:10.37,2013-03-13 01:25:00,
2013-03-12 21:30:00,42.6,33.5,30.21,WNW,284,2.3,2.3,70,0.00,CLR,,0.00,WeatherDisplay:10.37,2013-03-13 01:30:00,
2013-03-12 21:35:00,42.6,33.5,30.21,West,272,3.5,3.5,70,0.00,CLR,,0.00,WeatherDisplay:10.37,2013-03-13 01:35:00,
2013-03-12 21:40:00,42.7,33.2,30.21,West,279,4.0,4.0,69,0.00,CLR,,0.00,WeatherDisplay:10.37,2013-03-13 01:40:00,
2013-03-12 21:45:00,42.7,32.9,30.21,WNW,286,2.3,2.3,68,0.00,CLR,,0.00,WeatherDisplay:10.37,2013-03-13 01:45:00,
2013-03-12 21:50:00,42.8,33.0,30.22,WNW,287,1.0,4.0,68,0.00,CLR,,0.00,WeatherDisplay:10.37,2013-03-13 01:50:00,
2013-03-12 21:55:00,42.9,33.1,30.22,WNW,302,2.3,2.3,68,0.00,CLR,,0.00,WeatherDisplay:10.37,2013-03-13 01:55:00,
2013-03-12 22:00:00,42.9,32.7,30.22,WNW,300,0.0,2.0,67,0.00,CLR,,0.00,WeatherDisplay:10.37,2013-03-13 02:00:00,
2013-03-12 22:05:00,43.0,33.5,30.23,NW,313,3.5,3.5,69,0.00,CLR,,0.00,WeatherDisplay:10.37,2013-03-13 02:05:00,
2013-03-12 22:10:00,42.9,33.1,30.23,NW,313,0.0,0.0,68,0.00,CLR,,0.00,WeatherDisplay:10.37,2013-03-13 02:10:00,
2013-03-12 22:15:00,42.7,32.9,30.22,WNW,300,3.5,3.5,68,0.00,CLR,,0.00,WeatherDisplay:10.37,2013-03-13 02:15:00,
2013-03-12 22:20:00,42.5,33.0,30.23,WNW,296,2.3,2.3,69,0.00,CLR,,0.00,WeatherDisplay:10.37,2013-03-13 02:20:00,
2013-03-12 22:25:00,42.3,32.5,30.23,WSW,249,3.5,3.5,68,0.00,CLR,,0.00,WeatherDisplay:10.37,2013-03-13 02:25:00,
2013-03-12 22:30:00,42.2,33.1,30.23,WSW,244,1.1,0.0,70,0.00,CLR,,0.00,WeatherDisplay:10.37,2013-03-13 02:30:00,
2013-03-12 22:35:00,42.0,33.3,30.23,WSW,255,2.3,2.3,71,0.00,CLR,,0.00,WeatherDisplay:10.37,2013-03-13 02:35:00,
2013-03-12 22:40:00,41.8,33.4,30.23,West,265,1.1,1.1,72,0.00,CLR,,0.00,WeatherDisplay:10.37,2013-03-13 02:40:00,
2013-03-12 22:45:00,41.7,33.3,30.23,West,267,1.1,1.1,72,0.00,CLR,,0.00,WeatherDisplay:10.37,2013-03-13 02:45:00,
2013-03-12 22:50:00,41.5,33.5,30.23,WSW,244,3.5,3.5,73,0.00,CLR,,0.00,WeatherDisplay:10.37,2013-03-13 02:50:00,
2013-03-12 22:55:00,41.4,33.0,30.23,WSW,240,2.3,2.3,72,0.00,CLR,,0.00,WeatherDisplay:10.37,2013-03-13 02:55:00,
2013-03-12 23:00:00,41.4,33.7,30.24,WSW,240,2.0,2.0,74,0.00,CLR,,0.00,WeatherDisplay:10.37,2013-03-13 03:00:00,
2013-03-12 23:05:00,41.3,33.6,30.24,NW,322,3.5,3.5,74,0.00,CLR,,0.00,WeatherDisplay:10.37,2013-03-13 03:05:00,
2013-03-12 23:10:00,41.2,32.9,30.24,West,271,2.3,2.3,72,0.00,CLR,,0.00,WeatherDisplay:10.37,2013-03-13 03:10:00,
2013-03-12 23:15:00,41.2,33.5,30.23,West,281,3.5,3.5,74,0.00,CLR,,0.00,WeatherDisplay:10.37,2013-03-13 03:15:00,
2013-03-12 23:20:00,41.1,33.4,30.23,WNW,302,3.5,3.5,74,0.00,CLR,,0.00,WeatherDisplay:10.37,2013-03-13 03:20:00,
2013-03-12 23:25:00,41.0,33.0,30.23,West,264,1.1,0.0,73,0.00,CLR,,0.00,WeatherDisplay:10.37,2013-03-13 03:25:00,
2013-03-12 23:30:00,40.8,32.5,30.24,West,265,1.1,1.1,72,0.00,CLR,,0.00,WeatherDisplay:10.37,2013-03-13 03:30:00,
2013-03-12 23:35:00,40.7,32.4,30.24,West,264,2.3,2.3,72,0.00,CLR,,0.00,WeatherDisplay:10.37,2013-03-13 03:35:00,
2013-03-12 23:40:00,40.6,32.6,30.24,West,265,2.3,2.3,73,0.00,CLR,,0.00,WeatherDisplay:10.37,2013-03-13 03:40:00,
2013-03-12 23:45:00,40.4,32.8,30.24,SW,236,3.5,3.5,74,0.00,CLR,,0.00,WeatherDisplay:10.37,2013-03-13 03:45:00,
2013-03-12 23:50:00,40.2,32.2,30.24,WSW,252,3.5,3.5,73,0.00,CLR,,0.00,WeatherDisplay:10.37,2013-03-13 03:50:00,
2013-03-12 23:55:00,40.2,31.9,30.24,West,265,3.5,3.5,72,0.00,CLR,,0.00,WeatherDisplay:10.37,2013-03-13 03:55:00,